createdAt,value
2023-08-01T00:02:18.451Z,97938.09
2023-08-01T00:04:45.513Z,97955.56
2023-08-01T00:07:12.424Z,97943.41
2023-08-01T00:09:39.279Z,97940.78
2023-08-01T00:12:06.757Z,97939.00
2023-08-01T00:14:33.874Z,97929.97
2023-08-01T00:17:00.832Z,97933.72
2023-08-01T00:19:28.938Z,97938.88
2023-08-01T00:21:55.976Z,97926.94
2023-08-01T00:24:22.898Z,97900.44
2023-08-01T00:26:49.824Z,97901.50
2023-08-01T00:29:16.666Z,97891.00
2023-08-01T00:31:43.494Z,97899.38
2023-08-01T00:34:10.422Z,97904.34
2023-08-01T00:36:37.241Z,97901.06
2023-08-01T00:39:04.107Z,97892.56
2023-08-01T00:41:30.949Z,97876.13
2023-08-01T00:43:57.798Z,97883.09
2023-08-01T00:46:25.570Z,97863.16
2023-08-01T00:48:53.421Z,97863.06
2023-08-01T00:51:20.280Z,97863.34
2023-08-01T00:53:47.347Z,97850.88
2023-08-01T00:56:15.796Z,97864.72
2023-08-01T00:58:42.700Z,97851.81
2023-08-01T01:01:09.560Z,97850.16
2023-08-01T01:03:38.701Z,97838.03
2023-08-01T01:06:34.192Z,97854.44
2023-08-01T01:09:01.947Z,97830.59
2023-08-01T01:11:28.984Z,97837.34
2023-08-01T01:13:55.917Z,97842.28
2023-08-01T01:16:22.904Z,97830.78
2023-08-01T01:18:49.756Z,97825.19
2023-08-01T01:21:16.647Z,97839.97
2023-08-01T01:23:44.983Z,97830.91
2023-08-01T01:26:12.836Z,97837.31
2023-08-01T01:28:40.570Z,97826.09
2023-08-01T01:31:08.008Z,97835.66
2023-08-01T01:33:35.306Z,97825.81
2023-08-01T01:36:03.433Z,97816.59
2023-08-01T01:38:30.330Z,97818.44
2023-08-01T01:40:57.201Z,97818.19
2023-08-01T01:43:24.072Z,97806.72
2023-08-01T01:45:50.944Z,97789.63
2023-08-01T01:48:17.803Z,97782.97
2023-08-01T01:50:45.011Z,97781.38
2023-08-01T01:53:11.957Z,97774.63
2023-08-01T01:55:38.790Z,97773.69
2023-08-01T01:58:06.230Z,97773.84
2023-08-01T02:00:33.159Z,97754.97
2023-08-01T02:03:00.018Z,97745.81
2023-08-01T02:05:26.830Z,97747.75
2023-08-01T02:07:53.684Z,97740.22
2023-08-01T02:10:20.621Z,97743.03
2023-08-01T02:12:47.534Z,97751.19
2023-08-01T02:15:14.383Z,97747.59
2023-08-01T02:17:41.293Z,97731.69
2023-08-01T02:20:08.704Z,97727.72
2023-08-01T02:22:35.554Z,97737.44
2023-08-01T02:25:02.481Z,97732.03
2023-08-01T02:27:29.366Z,97720.69
2023-08-01T02:29:56.208Z,97729.91
2023-08-01T02:32:23.130Z,97734.97
2023-08-01T02:34:50.138Z,97734.66
2023-08-01T02:37:17.071Z,97727.56
2023-08-01T02:39:43.975Z,97747.47
2023-08-01T02:42:10.849Z,97748.47
2023-08-01T02:44:37.696Z,97730.56
2023-08-01T02:47:04.754Z,97740.41
2023-08-01T02:49:31.643Z,97748.28
2023-08-01T02:51:59.734Z,97734.38
2023-08-01T02:54:26.639Z,97738.50
2023-08-01T02:56:53.479Z,97742.66
2023-08-01T02:59:20.356Z,97744.31
2023-08-01T03:01:47.256Z,97731.00
2023-08-01T03:04:14.171Z,97715.78
2023-08-01T03:06:41.273Z,97736.25
2023-08-01T03:09:08.995Z,97734.41
2023-08-01T03:11:39.129Z,97729.38
2023-08-01T03:14:05.982Z,97729.75
2023-08-01T03:16:33.042Z,97721.50
2023-08-01T03:19:05.317Z,97726.28
2023-08-01T03:21:35.881Z,97723.19
2023-08-01T03:24:04.405Z,97711.38
2023-08-01T03:26:31.367Z,97718.97
2023-08-01T03:28:58.299Z,97708.09
2023-08-01T03:31:25.214Z,97695.00
2023-08-01T03:33:52.130Z,97707.63
2023-08-01T03:36:19.003Z,97705.16
2023-08-01T03:38:45.875Z,97703.53
2023-08-01T03:41:12.813Z,97706.50
2023-08-01T03:43:39.735Z,97694.31
2023-08-01T03:46:06.771Z,97703.22
2023-08-01T03:48:33.646Z,97705.16
2023-08-01T03:51:01.478Z,97715.34
2023-08-01T03:53:28.345Z,97718.63
2023-08-01T03:55:55.209Z,97707.63
2023-08-01T03:58:22.079Z,97717.34
2023-08-01T04:00:49.121Z,97717.34
2023-08-01T04:03:16.027Z,97721.09
2023-08-01T04:05:42.933Z,97714.06
2023-08-01T04:08:09.846Z,97728.03
2023-08-01T04:10:36.718Z,97710.00
2023-08-01T04:13:03.899Z,97722.31
2023-08-01T04:15:31.312Z,97704.25
2023-08-01T04:17:58.239Z,97707.88
2023-08-01T04:20:25.136Z,97682.28
2023-08-01T04:22:51.946Z,97678.16
2023-08-01T04:25:19.165Z,97657.66
2023-08-01T04:27:46.018Z,97632.34
2023-08-01T04:30:13.222Z,97647.75
2023-08-01T04:32:40.086Z,97628.44
2023-08-01T04:35:07.630Z,97622.69
2023-08-01T04:37:34.531Z,97614.66
2023-08-01T04:40:01.354Z,97597.59
2023-08-01T04:42:28.670Z,97584.16
2023-08-01T04:44:55.904Z,97552.31
2023-08-01T04:47:22.976Z,97535.25
2023-08-01T04:49:49.834Z,97518.19
2023-08-01T04:52:16.759Z,97491.44
2023-08-01T04:54:43.623Z,97466.34
2023-08-01T04:57:10.464Z,97452.19
2023-08-01T04:59:37.306Z,97543.47
2023-08-01T05:02:04.647Z,97537.56
2023-08-01T05:04:31.497Z,97546.44
2023-08-01T05:06:58.334Z,97549.69
2023-08-01T05:09:25.179Z,97536.25
2023-08-01T05:11:52.172Z,97515.91
2023-08-01T05:14:18.995Z,97537.22
2023-08-01T05:16:45.985Z,97542.66
2023-08-01T05:19:12.831Z,97552.00
2023-08-01T05:21:39.671Z,97556.59
2023-08-01T05:24:06.480Z,97570.44
2023-08-01T05:26:33.330Z,97592.56
2023-08-01T05:29:00.153Z,97580.59
2023-08-01T05:31:27.172Z,97581.09
2023-08-01T05:33:53.995Z,97576.84
2023-08-01T05:36:21.058Z,97572.06
2023-08-01T05:38:47.925Z,97608.53
2023-08-01T05:41:14.838Z,97606.53
2023-08-01T05:43:41.653Z,97622.97
2023-08-01T05:46:08.603Z,97607.38
2023-08-01T05:48:35.544Z,97594.41
2023-08-01T05:51:02.469Z,97587.53
2023-08-01T05:53:29.777Z,97586.34
2023-08-01T05:55:56.664Z,97589.97
2023-08-01T05:58:23.529Z,97594.75
2023-08-01T06:00:50.412Z,97590.09
2023-08-01T06:03:17.713Z,97588.13
2023-08-01T06:05:44.708Z,97602.94
2023-08-01T06:08:11.650Z,97604.91
2023-08-01T06:10:38.654Z,97602.25
2023-08-01T06:13:05.557Z,97629.38
2023-08-01T06:15:32.372Z,97620.34
2023-08-01T06:17:59.303Z,97601.97
2023-08-01T06:20:26.377Z,97598.31
2023-08-01T06:22:53.233Z,97606.84
2023-08-01T06:25:20.149Z,97612.94
2023-08-01T06:27:46.994Z,97622.31
2023-08-01T06:30:24.947Z,97606.41
2023-08-01T06:36:10.136Z,97611.00
2023-08-01T06:38:37.072Z,97616.75
2023-08-01T06:41:04.194Z,97622.66
2023-08-01T06:43:31.071Z,97621.66
2023-08-01T06:45:58.047Z,97634.13
2023-08-01T06:48:24.909Z,97623.13
2023-08-01T06:50:52.101Z,97628.56
2023-08-01T06:53:19.267Z,97629.56
2023-08-01T06:55:46.181Z,97646.94
2023-08-01T06:58:13.060Z,97635.94
2023-08-01T07:00:39.920Z,97659.13
2023-08-01T07:03:06.844Z,97647.63
2023-08-01T07:05:33.734Z,97644.66
2023-08-01T07:08:00.581Z,97632.69
2023-08-01T07:10:27.435Z,97624.47
2023-08-01T07:12:54.280Z,97626.09
2023-08-01T07:15:21.145Z,97629.56
2023-08-01T07:17:48.016Z,97634.31
2023-08-01T07:20:15.043Z,97629.88
2023-08-01T07:22:41.992Z,97635.13
2023-08-01T07:25:11.379Z,97618.81
2023-08-01T07:27:39.668Z,97634.31
2023-08-01T07:30:07.610Z,97635.75
2023-08-01T07:32:34.467Z,97646.25
2023-08-01T07:35:01.334Z,97641.63
2023-08-01T07:37:29.565Z,97655.44
2023-08-01T07:39:58.425Z,97655.13
2023-08-01T07:42:25.353Z,97670.06
2023-08-01T07:44:52.271Z,97667.63
2023-08-01T07:47:19.110Z,97663.81
2023-08-01T07:49:45.923Z,97680.75
2023-08-01T07:52:12.815Z,97682.53
2023-08-01T07:54:39.734Z,97685.66
2023-08-01T07:57:07.081Z,97694.19
2023-08-01T07:59:33.989Z,97710.94
2023-08-01T08:02:01.235Z,97700.41
2023-08-01T08:04:28.086Z,97700.41
2023-08-01T08:06:56.055Z,97683.97
2023-08-01T08:09:25.712Z,97702.19
2023-08-01T08:11:53.061Z,97703.31
2023-08-01T08:14:21.652Z,97703.47
2023-08-01T08:16:48.609Z,97694.94
2023-08-01T08:19:15.511Z,97695.44
2023-08-01T08:21:42.374Z,97685.78
2023-08-01T08:24:09.318Z,97689.03
2023-08-01T08:26:38.924Z,97681.28
2023-08-01T08:29:06.196Z,97685.25
2023-08-01T08:31:33.150Z,97683.59
2023-08-01T08:33:59.995Z,97646.72
2023-08-01T08:36:26.853Z,97679.25
2023-08-01T08:38:53.914Z,97684.84
2023-08-01T08:41:27.373Z,97678.47
2023-08-01T08:43:58.827Z,97689.47
2023-08-01T08:46:31.098Z,97681.53
2023-08-01T08:48:59.462Z,97678.59
2023-08-01T08:51:29.316Z,97678.91
2023-08-01T08:53:59.711Z,97675.94
2023-08-01T08:56:29.439Z,97703.38
2023-08-01T08:58:58.232Z,97697.13
2023-08-01T09:01:25.197Z,97690.06
2023-08-01T09:03:52.087Z,97688.81
2023-08-01T09:06:25.546Z,97673.66
2023-08-01T09:09:11.271Z,97675.44
2023-08-01T09:11:50.821Z,97680.69
2023-08-01T09:14:18.883Z,97674.63
2023-08-01T09:16:48.308Z,97670.38
2023-08-01T09:19:22.905Z,97673.31
2023-08-01T09:21:50.867Z,97674.81
2023-08-01T09:24:22.264Z,97681.53
2023-08-01T09:26:50.368Z,97667.72
2023-08-01T09:29:19.161Z,97664.78
2023-08-01T09:31:46.236Z,97654.09
2023-08-01T09:34:24.493Z,97678.72
2023-08-01T09:36:52.835Z,97680.53
2023-08-01T09:39:21.897Z,97685.25
2023-08-01T09:41:59.936Z,97685.13
2023-08-01T09:44:29.060Z,97676.16
2023-08-01T09:47:04.542Z,97684.13
2023-08-01T09:49:32.375Z,97691.81
2023-08-01T09:52:00.711Z,97700.66
2023-08-01T09:54:27.573Z,97691.53
2023-08-01T09:56:55.689Z,97695.50
2023-08-01T09:59:25.750Z,97685.94
2023-08-01T10:01:55.548Z,97725.25
2023-08-01T10:04:27.859Z,97710.09
2023-08-01T10:07:13.000Z,97709.00
2023-08-01T10:09:41.889Z,97710.34
2023-08-01T10:12:10.109Z,97697.53
2023-08-01T10:14:37.700Z,97708.69
2023-08-01T10:17:04.840Z,97678.56
2023-08-01T10:19:36.405Z,97703.44
2023-08-01T10:22:05.375Z,97688.53
2023-08-01T10:24:33.693Z,97697.53
2023-08-01T10:27:24.892Z,97699.53
2023-08-01T10:30:04.657Z,97699.72
2023-08-01T10:32:37.361Z,97697.59
2023-08-01T10:35:05.269Z,97701.06
2023-08-01T10:37:46.692Z,97696.63
2023-08-01T10:40:16.126Z,97706.81
2023-08-01T10:42:45.835Z,97690.72
2023-08-01T10:45:25.802Z,97703.59
2023-08-01T10:47:53.753Z,97696.50
2023-08-01T10:50:20.920Z,97708.22
2023-08-01T10:52:47.888Z,97702.97
2023-08-01T10:55:14.937Z,97702.63
2023-08-01T10:57:50.482Z,97696.72
2023-08-01T11:00:18.774Z,97697.91
2023-08-01T11:02:53.305Z,97711.38
2023-08-01T11:05:20.286Z,97713.22
2023-08-01T11:07:58.274Z,97701.72
2023-08-01T11:10:31.521Z,97701.22
2023-08-01T11:12:59.818Z,97701.75
2023-08-01T11:15:26.677Z,97701.59
2023-08-01T11:17:56.294Z,97708.38
2023-08-01T11:20:25.789Z,97720.00
2023-08-01T11:22:55.366Z,97731.72
2023-08-01T11:25:50.026Z,97730.09
2023-08-01T11:28:18.506Z,97728.13
2023-08-01T11:30:46.901Z,97706.44
2023-08-01T11:33:24.869Z,97727.16
2023-08-01T11:35:58.530Z,97720.09
2023-08-01T11:38:30.423Z,97734.38
2023-08-01T11:41:01.592Z,97723.56
2023-08-01T11:43:42.671Z,97723.84
2023-08-01T11:46:10.237Z,97738.97
2023-08-01T11:48:37.909Z,97744.53
2023-08-01T11:51:05.425Z,97738.97
2023-08-01T11:53:39.194Z,97746.13
2023-08-01T11:56:06.814Z,97760.59
2023-08-01T11:58:41.854Z,97748.56
2023-08-01T12:01:13.786Z,97739.50
2023-08-01T12:04:07.348Z,97742.44
2023-08-01T12:06:34.840Z,97779.63
2023-08-01T12:09:14.753Z,97734.78
2023-08-01T12:11:42.697Z,97742.63
2023-08-01T12:14:14.680Z,97741.59
2023-08-01T12:16:47.045Z,97740.53
2023-08-01T12:19:21.525Z,97742.50
2023-08-01T12:21:49.465Z,97751.19
2023-08-01T12:24:16.336Z,97734.59
2023-08-01T12:26:43.446Z,97755.19
2023-08-01T12:29:11.503Z,97761.06
2023-08-01T12:31:38.657Z,97757.28
2023-08-01T12:34:05.644Z,97749.31
2023-08-01T12:36:32.587Z,97744.69
2023-08-01T12:38:59.550Z,97747.00
2023-08-01T12:41:26.481Z,97743.91
2023-08-01T12:43:53.434Z,97750.47
2023-08-01T12:46:20.422Z,97736.63
2023-08-01T12:48:47.902Z,97737.00
2023-08-01T12:51:15.768Z,97732.31
2023-08-01T12:53:43.896Z,97733.25
2023-08-01T12:56:10.883Z,97745.31
2023-08-01T12:58:38.030Z,97740.78
2023-08-01T13:01:05.193Z,97753.28
2023-08-01T13:03:32.143Z,97736.50
2023-08-01T13:05:59.502Z,97733.38
2023-08-01T13:08:26.524Z,97735.72
2023-08-01T13:10:53.359Z,97734.94
2023-08-01T13:13:20.355Z,97747.69
2023-08-01T13:15:47.248Z,97753.78
2023-08-01T13:18:15.131Z,97737.31
2023-08-01T13:20:42.119Z,97738.13
2023-08-01T13:23:09.468Z,97753.94
2023-08-01T13:25:36.825Z,97742.09
2023-08-01T13:28:03.900Z,97730.25
2023-08-01T13:30:30.748Z,97741.75
2023-08-01T13:32:57.635Z,97739.91
2023-08-01T13:35:24.454Z,97732.66
2023-08-01T13:37:51.280Z,97739.41
2023-08-01T13:40:18.098Z,97720.31
2023-08-01T13:42:44.918Z,97737.06
2023-08-01T13:45:11.844Z,97731.13
2023-08-01T13:47:38.811Z,97734.47
2023-08-01T13:50:06.201Z,97727.38
2023-08-01T13:52:33.064Z,97740.69
2023-08-01T13:54:59.908Z,97723.75
2023-08-01T13:57:27.458Z,97745.44
2023-08-01T14:00:02.260Z,97729.16
2023-08-01T14:02:37.606Z,97751.03
2023-08-01T14:05:04.916Z,97755.41
2023-08-01T14:07:31.733Z,97749.47
2023-08-01T14:09:58.575Z,97745.03
2023-08-01T14:12:25.748Z,97730.13
2023-08-01T14:14:52.602Z,97734.94
2023-08-01T14:17:19.429Z,97749.94
2023-08-01T14:19:46.262Z,97755.75
2023-08-01T14:22:13.074Z,97757.66
2023-08-01T14:24:39.969Z,97757.66
2023-08-01T14:27:07.044Z,97744.78
2023-08-01T14:29:33.898Z,97744.78
2023-08-01T14:32:00.809Z,97764.72
2023-08-01T14:34:27.636Z,97754.25
2023-08-01T14:36:54.460Z,97760.25
2023-08-01T14:39:23.047Z,97763.13
2023-08-01T14:44:20.694Z,97747.34
2023-08-01T14:46:47.683Z,97759.19
2023-08-01T14:49:14.586Z,97769.63
2023-08-01T14:51:41.478Z,97762.25
2023-08-01T14:54:09.070Z,97774.09
2023-08-01T14:56:36.760Z,97762.53
2023-08-01T14:59:04.503Z,97765.28
2023-08-01T15:01:31.547Z,97759.19
2023-08-01T15:03:58.508Z,97766.75
2023-08-01T15:06:26.877Z,97769.91
2023-08-01T15:08:53.854Z,97764.13
2023-08-01T15:11:21.977Z,97756.97
2023-08-01T15:13:48.840Z,97764.47
2023-08-01T15:16:15.734Z,97778.59
2023-08-01T15:18:43.117Z,97771.03
2023-08-01T15:21:09.947Z,97763.47
2023-08-01T15:23:36.809Z,97766.13
2023-08-01T15:26:03.624Z,97777.97
2023-08-01T15:28:30.476Z,97762.72
2023-08-01T15:31:08.898Z,97778.94
2023-08-01T15:33:38.247Z,97776.22
2023-08-01T15:36:07.520Z,97770.19
2023-08-01T15:38:37.137Z,97791.28
2023-08-01T15:41:08.808Z,97778.09
2023-08-01T15:43:38.388Z,97787.16
2023-08-01T15:46:06.548Z,97791.00
2023-08-01T15:48:35.007Z,97786.09
2023-08-01T15:51:04.449Z,97788.06
2023-08-01T15:53:31.453Z,97783.56
2023-08-01T15:56:00.545Z,97778.09
2023-08-01T15:58:28.440Z,97790.94
2023-08-01T16:00:55.497Z,97777.25
2023-08-01T16:03:22.539Z,97784.72
2023-08-01T16:05:50.274Z,97797.50
2023-08-01T16:08:18.040Z,97792.41
2023-08-01T16:10:45.512Z,97798.72
2023-08-01T16:13:13.674Z,97779.22
2023-08-01T16:15:42.046Z,97792.34
2023-08-01T16:18:09.489Z,97780.06
2023-08-01T16:20:36.961Z,97775.75
2023-08-01T16:23:04.419Z,97786.22
2023-08-01T16:25:31.306Z,97789.44
2023-08-01T16:27:58.159Z,97781.22
2023-08-01T16:30:25.180Z,97802.81
2023-08-01T16:32:52.196Z,97801.78
2023-08-01T16:35:19.666Z,97800.06
2023-08-01T16:37:47.165Z,97785.00
2023-08-01T16:40:14.320Z,97798.16
2023-08-01T16:42:41.516Z,97811.97
2023-08-01T16:45:11.010Z,97799.09
2023-08-01T16:47:43.014Z,97807.06
2023-08-01T16:50:18.637Z,97808.88
2023-08-01T16:52:47.014Z,97800.97
2023-08-01T16:55:15.096Z,97806.94
2023-08-01T16:57:41.991Z,97817.50
2023-08-01T17:00:11.317Z,97825.22
2023-08-01T17:02:38.627Z,97825.72
2023-08-01T17:05:06.614Z,97836.44
2023-08-01T17:07:33.500Z,97832.19
2023-08-01T17:10:03.877Z,97837.28
2023-08-01T17:12:30.760Z,97827.13
2023-08-01T17:14:57.641Z,97845.88
2023-08-01T17:17:24.571Z,97850.88
2023-08-01T17:19:51.577Z,97846.78
2023-08-01T17:22:18.602Z,97857.94
2023-08-01T17:24:45.553Z,97856.31
2023-08-01T17:27:12.497Z,97855.16
2023-08-01T17:29:39.422Z,97857.44
2023-08-01T17:32:06.560Z,97859.44
2023-08-01T17:34:33.879Z,97878.44
2023-08-01T17:37:00.856Z,97855.06
2023-08-01T17:39:28.691Z,97856.56
2023-08-01T17:41:57.874Z,97866.53
2023-08-01T17:44:25.454Z,97857.53
2023-08-01T17:46:53.586Z,97857.88
2023-08-01T17:49:20.456Z,97860.72
2023-08-01T17:51:47.307Z,97879.66
2023-08-01T17:54:14.345Z,97873.78
2023-08-01T17:56:42.281Z,97895.19
2023-08-01T17:59:09.576Z,97877.88
2023-08-01T18:01:36.527Z,97888.78
2023-08-01T18:04:05.409Z,97901.25
2023-08-01T18:06:32.374Z,97895.69
2023-08-01T18:08:59.230Z,97900.81
2023-08-01T18:11:30.514Z,97889.28
2023-08-01T18:14:03.863Z,97892.09
2023-08-01T18:16:30.859Z,97899.50
2023-08-01T18:18:57.813Z,97897.03
2023-08-01T18:21:24.738Z,97900.00
2023-08-01T18:23:51.741Z,97902.66
2023-08-01T18:26:24.871Z,97896.41
2023-08-01T18:28:55.856Z,97898.56
2023-08-01T18:31:24.410Z,97908.63
2023-08-01T18:33:51.287Z,97897.47
2023-08-01T18:36:21.433Z,97909.97
2023-08-01T18:38:50.313Z,97915.59
2023-08-01T18:41:19.975Z,97924.34
2023-08-01T18:43:47.323Z,97925.47
2023-08-01T18:46:15.276Z,97927.00
2023-08-01T18:48:42.289Z,97933.41
2023-08-01T18:51:23.098Z,97940.34
2023-08-01T18:53:50.137Z,97935.75
2023-08-01T18:56:22.074Z,97950.75
2023-08-01T18:58:49.664Z,97948.94
2023-08-01T19:01:21.462Z,97962.59
2023-08-01T19:03:48.533Z,97956.50
2023-08-01T19:06:19.423Z,97954.84
2023-08-01T19:08:47.421Z,97966.19
2023-08-01T19:11:14.822Z,97966.88
2023-08-01T19:13:42.958Z,97969.16
2023-08-01T19:16:10.072Z,97982.50
2023-08-01T19:18:36.942Z,97975.28
2023-08-01T19:21:04.201Z,97978.72
2023-08-01T19:23:31.269Z,97981.19
2023-08-01T19:26:06.442Z,97989.09
2023-08-01T19:28:33.276Z,98003.41
2023-08-01T19:31:00.112Z,98003.22
2023-08-01T19:33:26.924Z,98007.19
2023-08-01T19:35:54.839Z,98009.16
2023-08-01T19:38:21.780Z,98012.78
2023-08-01T19:40:49.173Z,98022.66
2023-08-01T19:43:16.215Z,98010.59
2023-08-01T19:45:44.921Z,98025.09
2023-08-01T19:48:12.395Z,98033.31
2023-08-01T19:50:39.782Z,98040.06
2023-08-01T19:53:08.047Z,98027.84
2023-08-01T19:55:37.000Z,98044.66
2023-08-01T19:58:04.385Z,98047.94
2023-08-01T20:00:31.327Z,98055.69
2023-08-01T20:02:58.458Z,98057.75
2023-08-01T20:05:25.858Z,98047.88
2023-08-01T20:07:52.808Z,98056.44
2023-08-01T20:10:20.013Z,98065.81
2023-08-01T20:12:46.889Z,98053.16
2023-08-01T20:15:13.933Z,98065.97
2023-08-01T20:17:41.982Z,98058.06
2023-08-01T20:20:10.718Z,98063.34
2023-08-01T20:22:38.278Z,98057.25
2023-08-01T20:25:06.990Z,98064.88
2023-08-01T20:27:34.280Z,98082.06
2023-08-01T20:30:01.206Z,98072.19
2023-08-01T20:32:28.196Z,98060.28
2023-08-01T20:34:55.133Z,98074.75
2023-08-01T20:37:22.059Z,98076.25
2023-08-01T20:39:48.956Z,98067.34
2023-08-01T20:42:15.884Z,98076.56
2023-08-01T20:44:42.909Z,98066.47
2023-08-01T20:47:10.561Z,98074.81
2023-08-01T20:49:37.406Z,98072.34
2023-08-01T20:52:04.549Z,98093.47
2023-08-01T20:54:31.390Z,98079.59
2023-08-01T20:56:58.909Z,98102.28
2023-08-01T20:59:25.964Z,98095.22
2023-08-01T21:01:52.807Z,98091.41
2023-08-01T21:04:19.742Z,98093.41
2023-08-01T21:06:46.870Z,98073.75
2023-08-01T21:09:13.977Z,98076.59
2023-08-01T21:11:40.788Z,98079.09
2023-08-01T21:14:07.626Z,98086.38
2023-08-01T21:16:34.461Z,98095.97
2023-08-01T21:19:01.317Z,98099.13
2023-08-01T21:21:28.190Z,98089.09
2023-08-01T21:23:55.154Z,98100.06
2023-08-01T21:26:21.982Z,98103.84
2023-08-01T21:28:48.890Z,98102.19
2023-08-01T21:31:15.786Z,98093.06
2023-08-01T21:33:42.678Z,98104.41
2023-08-01T21:36:09.582Z,98110.59
2023-08-01T21:38:36.751Z,98100.56
2023-08-01T21:41:03.911Z,98107.41
2023-08-01T21:43:31.109Z,98109.88
2023-08-01T21:46:01.511Z,98088.78
2023-08-01T21:48:29.322Z,98090.50
2023-08-01T21:50:56.230Z,98098.63
2023-08-01T21:53:23.086Z,98092.31
2023-08-01T21:55:49.966Z,98084.34
2023-08-01T21:58:17.032Z,98095.38
2023-08-01T22:00:45.200Z,98087.28
2023-08-01T22:03:15.260Z,98086.31
2023-08-01T22:05:42.259Z,98079.19
2023-08-01T22:08:09.308Z,98098.19
2023-08-01T22:10:37.042Z,98100.22
2023-08-01T22:13:04.238Z,98093.06
2023-08-01T22:15:31.343Z,98092.50
2023-08-01T22:17:58.423Z,98100.00
2023-08-01T22:20:25.409Z,98102.69
2023-08-01T22:22:52.467Z,98078.59
2023-08-01T22:25:19.469Z,98102.75
2023-08-01T22:27:46.409Z,98104.34
2023-08-01T22:30:13.442Z,98098.41
2023-08-01T22:32:40.373Z,98100.13
2023-08-01T22:35:08.453Z,98114.84
2023-08-01T22:37:35.382Z,98105.69
2023-08-01T22:40:02.750Z,98102.59
2023-08-01T22:42:29.724Z,98091.03
2023-08-01T22:44:56.598Z,98096.28
2023-08-01T22:47:23.471Z,98103.75
2023-08-01T22:50:04.624Z,98099.28
2023-08-01T22:52:33.269Z,98093.81
2023-08-01T22:55:00.738Z,98099.75
2023-08-01T22:57:27.844Z,98084.44
2023-08-01T22:59:54.724Z,98107.97
2023-08-01T23:02:21.623Z,98101.97
2023-08-01T23:04:48.710Z,98123.72
2023-08-01T23:07:16.337Z,98114.78
2023-08-01T23:09:43.727Z,98122.34
2023-08-01T23:12:10.729Z,98114.56
2023-08-01T23:14:37.665Z,98096.75
2023-08-01T23:17:04.833Z,98105.84
2023-08-01T23:19:31.786Z,98104.44
2023-08-01T23:21:58.678Z,98116.34
2023-08-01T23:24:25.568Z,98096.47
2023-08-01T23:26:52.374Z,98098.50
2023-08-01T23:29:19.194Z,98110.63
2023-08-01T23:31:46.009Z,98093.50
2023-08-01T23:34:12.840Z,98109.09
2023-08-01T23:36:40.021Z,98102.00
2023-08-01T23:39:07.430Z,98101.50
2023-08-01T23:41:34.339Z,98099.53
2023-08-01T23:44:01.194Z,98096.38
2023-08-01T23:46:28.115Z,98086.44
2023-08-01T23:48:55.184Z,98095.72
2023-08-01T23:51:22.341Z,98088.25
2023-08-01T23:53:49.221Z,98083.84
2023-08-01T23:56:16.113Z,98084.81
2023-08-01T23:58:43.144Z,98087.56
